Time;durP1;ratioP1;P1;durP2;ratioP2;P2;SDS_P1;SDS_P2;PMS_P1;PMS_P2;Temp;Humidity;BMP_temperature;BMP_pressure;BME280_temperature;BME280_humidity;BME280_pressure;Samples;Min_cycle;Max_cycle;Signal;HPM_P1;HPM_P2
2023/03/25 00:00:29;;;;;;;27.00;10.20;;;;;;;15.61;82.65;97782.98;67594;1281;1016712;-61
2023/03/25 00:03:52;;;;;;;25.00;10.80;;;;;;;15.67;81.84;97774.60;67630;1281;1016415;-61
2023/03/25 00:06:54;;;;;;;27.20;10.60;;;;;;;15.66;80.82;97774.05;67563;1281;1016170;-61
2023/03/25 00:09:57;;;;;;;27.30;10.60;;;;;;;15.82;79.96;97777.63;67633;1281;1016506;-61
2023/03/25 00:13:03;;;;;;;25.20;11.00;;;;;;;15.81;79.68;97772.89;67604;1281;1016505;-61
2023/03/25 00:16:06;;;;;;;29.60;11.50;;;;;;;15.87;78.71;97778.55;67627;1281;1016501;-62
2023/03/25 00:19:09;;;;;;;28.10;11.20;;;;;;;15.87;78.56;97776.91;67600;1281;1016527;-61
2023/03/25 00:22:11;;;;;;;25.70;10.40;;;;;;;15.88;78.79;97778.27;67646;1281;1016373;-61
2023/03/25 00:25:16;;;;;;;26.30;9.90;;;;;;;15.81;79.25;97785.45;67663;1281;1016727;-61
2023/03/25 00:28:18;;;;;;;24.20;8.80;;;;;;;15.69;80.10;97784.11;67576;1281;1016440;-61
2023/03/25 00:31:21;;;;;;;23.70;9.60;;;;;;;15.56;80.77;97780.88;67591;1281;1016475;-61
2023/03/25 00:34:23;;;;;;;24.10;9.80;;;;;;;15.59;80.69;97776.12;67644;1281;1016482;-61
2023/03/25 00:37:26;;;;;;;29.40;11.60;;;;;;;15.69;80.46;97780.95;67582;1281;1016460;-61
2023/03/25 00:40:28;;;;;;;;;;;;;;;15.74;80.23;97781.72;67625;1281;1016356;-61
2023/03/25 00:43:30;;;;;;;25.40;9.60;;;;;;;15.68;80.58;97779.16;67538;1257;1016046;-61
2023/03/25 00:46:33;;;;;;;21.40;7.90;;;;;;;15.61;80.70;97779.27;67550;1281;1016390;-61
2023/03/25 00:49:35;;;;;;;19.90;5.90;;;;;;;15.53;80.67;97771.99;67645;1281;1016371;-61
2023/03/25 00:52:37;;;;;;;20.20;6.10;;;;;;;15.55;79.59;97761.57;67641;1281;1016400;-61
2023/03/25 00:55:40;;;;;;;18.10;5.90;;;;;;;15.57;77.59;97757.46;67647;1281;1019684;-61
2023/03/25 00:58:42;;;;;;;18.50;5.40;;;;;;;15.73;77.28;97758.71;67605;1281;1018077;-60
2023/03/25 01:01:45;;;;;;;16.40;4.80;;;;;;;15.71;76.09;97769.62;67605;1281;1016330;-60
2023/03/25 01:04:48;;;;;;;18.70;4.70;;;;;;;15.56;76.29;97777.11;67654;1281;1017835;-60
2023/03/25 01:07:51;;;;;;;18.80;5.40;;;;;;;15.43;76.58;97783.52;67604;1281;1016444;-61
2023/03/25 01:10:53;;;;;;;15.20;4.30;;;;;;;15.35;76.64;97784.30;67636;1281;1016371;-60
2023/03/25 01:13:56;;;;;;;15.30;3.90;;;;;;;15.36;76.33;97779.73;67662;1281;1016270;-61
2023/03/25 01:16:58;;;;;;;;;;;;;;;15.26;76.72;97785.69;67623;1281;1016384;-61
2023/03/25 01:20:04;;;;;;;15.00;3.70;;;;;;;15.15;76.97;97783.34;65072;1281;6382647;-61
2023/03/25 01:23:15;;;;;;;15.50;4.00;;;;;;;15.06;77.38;97780.85;67543;1281;1016250;-61
2023/03/25 01:26:17;;;;;;;16.50;3.90;;;;;;;15.04;77.48;97769.66;67638;1281;1016465;-61
2023/03/25 01:29:20;;;;;;;15.80;4.00;;;;;;;15.15;77.24;97777.88;67645;1281;1016242;-61
2023/03/25 01:32:22;;;;;;;13.90;4.20;;;;;;;14.93;78.29;97779.00;67643;1281;1016448;-61
2023/03/25 01:35:25;;;;;;;15.60;4.20;;;;;;;14.91;78.30;97776.71;67616;1281;1016194;-61
2023/03/25 01:38:28;;;;;;;;;;;;;;;14.90;78.13;97776.98;67605;1281;1016412;-61
2023/03/25 01:41:31;;;;;;;13.20;3.50;;;;;;;14.82;77.86;97775.55;67593;1281;1016179;-60
2023/03/25 01:44:33;;;;;;;12.60;3.70;;;;;;;14.69;78.11;97771.56;67583;1281;1016407;-60
2023/03/25 01:47:36;;;;;;;;;;;;;;;14.55;78.11;97778.70;67627;1281;1016238;-61
2023/03/25 01:50:38;;;;;;;16.10;4.00;;;;;;;14.41;77.79;97777.31;67649;1281;1016552;-60
2023/03/25 01:53:40;;;;;;;13.30;3.50;;;;;;;14.24;79.10;97772.36;67649;1281;1018906;-61
2023/03/25 01:56:43;;;;;;;13.60;3.50;;;;;;;14.24;78.76;97772.20;67600;1281;1016445;-61
2023/03/25 01:59:47;;;;;;;14.20;3.60;;;;;;;14.25;78.08;97765.77;67625;1281;1016219;-61
2023/03/25 02:02:49;;;;;;;15.50;3.30;;;;;;;14.10;78.52;97764.00;67581;1281;1016449;-61
2023/03/25 02:05:52;;;;;;;14.10;3.40;;;;;;;14.07;77.97;97760.94;67613;1281;1015900;-61
2023/03/25 02:08:54;;;;;;;11.30;3.40;;;;;;;14.00;78.15;97760.80;67623;1281;1016108;-60
2023/03/25 02:11:56;;;;;;;14.90;3.70;;;;;;;13.91;77.89;97755.49;67640;1281;1016162;-61
2023/03/25 02:15:00;;;;;;;12.10;3.20;;;;;;;13.84;78.09;97749.46;67649;1281;1016351;-61
2023/03/25 02:18:02;;;;;;;14.30;3.60;;;;;;;13.73;78.18;97756.42;67630;1281;1016469;-60
2023/03/25 02:21:07;;;;;;;12.50;3.20;;;;;;;13.65;78.03;97755.61;67635;1281;1016488;-61
2023/03/25 02:24:12;;;;;;;9.90;3.00;;;;;;;13.44;78.58;97753.05;67528;1281;1015890;-61
2023/03/25 02:27:25;;;;;;;10.50;3.30;;;;;;;13.44;78.27;97749.03;67621;1281;1016369;-60
2023/03/25 02:30:40;;;;;;;13.70;3.50;;;;;;;13.44;77.20;97751.54;67583;1281;1016421;-61
2023/03/25 02:33:42;;;;;;;12.00;3.40;;;;;;;13.41;76.78;97747.52;67565;1281;1016443;-61
2023/03/25 02:36:45;;;;;;;16.10;3.40;;;;;;;13.49;76.19;97745.62;67640;1281;1017160;-61
2023/03/25 02:39:47;;;;;;;;;;;;;;;13.56;75.73;97741.65;67638;1281;1016246;-61
2023/03/25 02:42:50;;;;;;;11.90;3.30;;;;;;;13.54;75.98;97742.04;67592;1281;1017182;-61
2023/03/25 02:45:52;;;;;;;12.40;3.40;;;;;;;13.76;75.85;97735.09;67570;1281;1016031;-61
2023/03/25 02:48:54;;;;;;;12.20;3.30;;;;;;;13.85;75.96;97733.73;67639;1281;1017990;-61
2023/03/25 02:51:57;;;;;;;13.40;3.50;;;;;;;13.84;76.16;97733.51;67638;1281;1016016;-61
2023/03/25 02:55:03;;;;;;;12.60;3.10;;;;;;;13.86;75.00;97735.47;67597;1281;1016273;-62
2023/03/25 02:58:08;;;;;;;11.50;3.10;;;;;;;13.71;74.66;97733.08;67618;1281;1016694;-61
2023/03/25 03:01:13;;;;;;;10.50;3.00;;;;;;;13.58;75.78;97740.23;67550;1281;1016568;-61
2023/03/25 03:04:16;;;;;;;12.40;3.30;;;;;;;13.78;75.63;97744.44;67619;1281;1016488;-61
2023/03/25 03:07:18;;;;;;;13.40;3.20;;;;;;;13.96;74.90;97744.59;67616;1281;1016038;-61
2023/03/25 03:10:20;;;;;;;11.80;3.60;;;;;;;14.01;74.88;97747.41;67622;1281;1016366;-61
2023/03/25 03:13:23;;;;;;;16.30;3.80;;;;;;;13.97;75.30;97750.23;67582;1281;1016433;-61
2023/03/25 03:16:25;;;;;;;17.70;4.60;;;;;;;13.97;75.28;97758.55;67629;1281;1016479;-61
2023/03/25 03:19:30;;;;;;;;;;;;;;;13.96;75.18;97761.52;67623;1281;1016374;-61
2023/03/25 03:22:34;;;;;;;12.90;3.70;;;;;;;14.03;75.02;97769.58;67620;1281;1016417;-60
2023/03/25 03:25:36;;;;;;;10.90;3.00;;;;;;;14.03;75.02;97777.63;67603;1281;1016334;-61
2023/03/25 03:28:38;;;;;;;13.00;3.50;;;;;;;13.92;75.35;97781.80;67585;1281;1020050;-61
2023/03/25 03:31:41;;;;;;;11.80;3.40;;;;;;;14.10;74.32;97785.27;67565;1281;1016394;-61
2023/03/25 03:34:45;;;;;;;11.50;3.40;;;;;;;13.88;74.15;97788.84;67681;1281;1017145;-61
2023/03/25 03:37:47;;;;;;;13.00;3.50;;;;;;;13.72;74.38;97798.71;67546;1281;1018072;-60
2023/03/25 03:40:50;;;;;;;13.70;3.60;;;;;;;13.45;75.57;97800.77;67562;1281;1016177;-61
2023/03/25 03:43:52;;;;;;;10.90;3.40;;;;;;;13.26;76.18;97794.16;67632;1281;1016274;-61
2023/03/25 03:47:07;;;;;;;;;;;;;;;;;;;;;
2023/03/25 03:50:10;;;;;;;16.30;3.20;;;;;;;13.26;75.85;97794.22;67645;1281;1017105;-60
2023/03/25 03:53:12;;;;;;;12.10;3.20;;;;;;;13.18;75.97;97792.17;67641;1281;1016790;-60
2023/03/25 03:56:15;;;;;;;12.10;3.30;;;;;;;13.24;76.02;97795.03;67607;1281;1018818;-61
2023/03/25 03:59:17;;;;;;;;;;;;;;;13.32;75.90;97800.14;67587;1279;1016413;-60
2023/03/25 04:02:22;;;;;;;15.90;4.10;;;;;;;13.48;75.56;97804.23;67625;1281;1017154;-61
2023/03/25 04:05:29;;;;;;;23.80;7.00;;;;;;;13.60;75.29;97802.23;67631;1281;1016217;-60
2023/03/25 04:08:33;;;;;;;24.30;6.70;;;;;;;13.71;74.70;97806.95;67625;1281;1016513;-60
2023/03/25 04:11:35;;;;;;;19.00;4.50;;;;;;;13.55;74.84;97815.17;67589;1281;1016466;-61
2023/03/25 04:14:38;;;;;;;21.40;5.60;;;;;;;13.33;75.03;97810.60;67552;1281;1016447;-61
2023/03/25 04:17:40;;;;;;;17.60;4.20;;;;;;;13.20;75.59;97816.44;67592;1281;1017723;-61
2023/03/25 04:20:43;;;;;;;17.70;4.30;;;;;;;13.11;75.88;97819.51;67614;1281;1016241;-61
2023/03/25 04:23:46;;;;;;;19.50;4.90;;;;;;;12.96;76.36;97817.45;67587;1281;1016856;-60
2023/03/25 04:26:48;;;;;;;22.60;6.20;;;;;;;12.73;77.83;97813.50;67604;1281;1017440;-61
2023/03/25 04:29:51;;;;;;;30.00;8.00;;;;;;;12.84;78.04;97816.10;67637;1281;1015951;-60
2023/03/25 04:32:54;;;;;;;33.00;9.80;;;;;;;12.84;78.54;97811.31;67558;1281;1018621;-60
2023/03/25 04:35:56;;;;;;;31.50;10.20;;;;;;;13.21;77.02;97810.76;67615;1281;1016447;-60
2023/03/25 04:38:58;;;;;;;34.00;9.90;;;;;;;13.42;76.19;97808.76;67608;1281;1016299;-60
2023/03/25 04:42:02;;;;;;;32.70;9.70;;;;;;;13.57;75.37;97817.65;67627;1281;1016860;-60
2023/03/25 04:45:04;;;;;;;35.00;10.90;;;;;;;13.44;75.68;97820.73;67602;1281;1017677;-61
2023/03/25 04:48:13;;;;;;;24.60;7.90;;;;;;;13.50;75.68;97821.02;67644;1281;1016460;-60
2023/03/25 04:51:16;;;;;;;21.40;6.00;;;;;;;13.45;75.49;97814.79;67550;1281;1016411;-60
2023/03/25 04:54:18;;;;;;;20.60;5.40;;;;;;;13.35;75.69;97813.95;67614;1281;1018267;-60
2023/03/25 04:57:21;;;;;;;21.00;5.80;;;;;;;13.26;75.95;97808.19;67640;1281;1016416;-60
2023/03/25 05:00:24;;;;;;;20.20;5.20;;;;;;;13.25;75.87;97803.42;67582;1281;1016157;-61
2023/03/25 05:03:26;;;;;;;20.10;5.20;;;;;;;13.11;76.08;97800.36;67587;1281;1015831;-61
2023/03/25 05:06:28;;;;;;;18.20;5.30;;;;;;;12.97;76.97;97802.81;67622;1281;1016434;-60
2023/03/25 05:09:31;;;;;;;18.40;5.40;;;;;;;12.98;77.27;97810.13;67629;1281;1016475;-60
2023/03/25 05:12:33;;;;;;;19.20;5.30;;;;;;;13.05;77.12;97809.90;67623;1281;1016478;-60
2023/03/25 05:15:38;;;;;;;18.10;5.00;;;;;;;13.19;76.53;97808.11;67634;1281;1016560;-60
2023/03/25 05:18:41;;;;;;;22.60;6.90;;;;;;;13.29;76.41;97812.33;67649;1281;1016917;-61
2023/03/25 05:21:43;;;;;;;22.90;6.40;;;;;;;13.50;75.31;97817.17;67647;1281;1018131;-61
2023/03/25 05:24:46;;;;;;;19.40;5.50;;;;;;;13.41;75.03;97823.96;67566;1281;1016411;-60
2023/03/25 05:27:48;;;;;;;19.40;5.70;;;;;;;13.21;75.71;97825.80;67585;1281;1016639;-60
2023/03/25 05:30:51;;;;;;;19.80;6.00;;;;;;;13.12;76.32;97829.93;67615;1281;1016472;-60
2023/03/25 05:33:53;;;;;;;19.00;6.00;;;;;;;13.04;76.78;97839.80;67633;1281;1016677;-60
2023/03/25 05:36:56;;;;;;;24.50;7.70;;;;;;;12.98;77.33;97845.18;67600;1281;1016790;-60
2023/03/25 05:39:58;;;;;;;24.60;7.90;;;;;;;13.09;77.20;97843.16;67577;1281;1018471;-61
2023/03/25 05:43:02;;;;;;;23.50;7.40;;;;;;;13.26;76.66;97842.41;67583;1281;1016172;-60
2023/03/25 05:46:04;;;;;;;22.80;6.40;;;;;;;13.31;76.47;97837.84;67584;1281;1016383;-60
2023/03/25 05:49:06;;;;;;;20.60;6.00;;;;;;;13.31;76.24;97839.55;67572;1281;1018903;-60
2023/03/25 05:52:10;;;;;;;20.80;6.10;;;;;;;13.23;76.66;97849.94;67592;1281;1016377;-61
2023/03/25 05:55:13;;;;;;;23.00;7.60;;;;;;;13.19;76.87;97851.23;67587;1281;1016143;-60
2023/03/25 05:58:16;;;;;;;24.50;7.10;;;;;;;13.24;76.95;97849.33;67595;1281;1016243;-60
2023/03/25 06:01:18;;;;;;;24.10;7.90;;;;;;;13.43;75.87;97847.48;67561;1281;1016445;-60
2023/03/25 06:04:22;;;;;;;24.10;8.00;;;;;;;13.35;75.92;97850.77;67583;1281;1017203;-60
2023/03/25 06:07:25;;;;;;;24.30;7.40;;;;;;;13.19;76.56;97856.20;67558;1281;1016500;-60
2023/03/25 06:10:27;;;;;;;22.40;6.90;;;;;;;13.20;76.62;97858.59;67594;1281;1018979;-61
2023/03/25 06:13:32;;;;;;;21.20;7.00;;;;;;;13.23;76.71;97867.30;67619;1281;1016462;-60
2023/03/25 06:16:35;;;;;;;23.50;7.50;;;;;;;13.19;76.86;97867.39;67583;1281;1016487;-61
2023/03/25 06:19:38;;;;;;;22.10;6.70;;;;;;;13.30;76.56;97869.32;67629;1281;1015925;-60
2023/03/25 06:22:41;;;;;;;21.80;6.50;;;;;;;13.38;76.27;97875.10;67575;1258;1016104;-60
2023/03/25 06:25:44;;;;;;;21.70;6.60;;;;;;;13.42;75.94;97875.09;67612;1281;1016580;-60
2023/03/25 06:28:46;;;;;;;21.10;6.30;;;;;;;13.40;76.38;97869.69;67586;1281;1017157;-60
2023/03/25 06:31:49;;;;;;;20.30;6.40;;;;;;;13.50;75.94;97865.66;67613;1281;1016481;-60
2023/03/25 06:34:51;;;;;;;22.40;6.80;;;;;;;13.58;76.24;97865.84;67616;1281;1016760;-60
2023/03/25 06:37:54;;;;;;;22.00;7.10;;;;;;;13.66;75.45;97866.58;67613;1281;1016370;-60
2023/03/25 06:40:56;;;;;;;21.30;7.30;;;;;;;13.75;75.16;97874.91;67580;1281;1018039;-61
2023/03/25 06:43:59;;;;;;;22.40;7.50;;;;;;;13.90;75.26;97873.54;67592;1281;1016114;-60
2023/03/25 06:47:04;;;;;;;24.00;8.00;;;;;;;14.14;75.50;97869.61;67630;1281;1016380;-60
2023/03/25 06:50:07;;;;;;;25.20;7.10;;;;;;;14.29;73.31;97870.77;67600;1281;1016251;-60
2023/03/25 06:53:10;;;;;;;23.20;7.90;;;;;;;14.15;73.40;97867.66;67575;1281;1016630;-60
2023/03/25 06:56:12;;;;;;;19.70;6.80;;;;;;;13.99;74.44;97876.62;67623;1281;1017172;-60
2023/03/25 06:59:14;;;;;;;23.10;6.70;;;;;;;14.12;73.75;97870.54;67628;1281;1016151;-60
2023/03/25 07:02:17;;;;;;;20.90;6.40;;;;;;;14.19;73.69;97874.13;67572;1281;1016569;-60
2023/03/25 07:05:19;;;;;;;22.50;7.00;;;;;;;14.33;72.92;97874.57;67564;1281;1016336;-60
2023/03/25 07:08:22;;;;;;;24.20;6.90;;;;;;;14.33;73.31;97872.96;67556;1281;1016462;-60
2023/03/25 07:11:24;;;;;;;22.60;7.60;;;;;;;14.32;72.73;97875.74;67607;1281;1016570;-60
2023/03/25 07:14:27;;;;;;;21.80;7.20;;;;;;;14.32;72.83;97877.30;67622;1281;1017307;-61
2023/03/25 07:17:29;;;;;;;21.30;6.60;;;;;;;14.44;72.81;97872.35;67550;1281;1015884;-61
2023/03/25 07:20:31;;;;;;;22.00;6.70;;;;;;;14.58;72.43;97871.30;67582;1281;1017723;-60
2023/03/25 07:23:34;;;;;;;19.60;5.70;;;;;;;14.79;72.52;97877.95;67590;1281;1015952;-60
2023/03/25 07:26:36;;;;;;;23.10;6.50;;;;;;;15.03;70.31;97887.16;67569;1281;1016365;-60
2023/03/25 07:29:39;;;;;;;20.90;5.40;;;;;;;15.17;70.74;97884.27;67570;1281;1016425;-60
2023/03/25 07:32:41;;;;;;;21.60;6.10;;;;;;;15.23;70.66;97878.57;67618;1281;1016451;-60
2023/03/25 07:35:43;;;;;;;24.10;6.80;;;;;;;15.40;69.80;97873.95;67604;1281;1016226;-60
2023/03/25 07:38:46;;;;;;;23.00;6.80;;;;;;;15.64;68.41;97869.20;67585;1281;1016325;-60
2023/03/25 07:41:48;;;;;;;20.70;5.80;;;;;;;15.75;68.41;97868.89;67622;1281;1016193;-60
2023/03/25 07:44:51;;;;;;;21.60;5.70;;;;;;;16.05;67.16;97875.11;67644;1281;1018302;-60
2023/03/25 07:47:53;;;;;;;;;;;;;;;16.19;66.24;97874.77;67632;1281;1016369;-60
2023/03/25 07:50:56;;;;;;;19.50;5.40;;;;;;;16.13;65.93;97868.31;67615;1281;1018897;-60
2023/03/25 07:53:59;;;;;;;20.90;5.60;;;;;;;16.26;65.18;97866.33;67629;1281;1016244;-60
2023/03/25 07:57:01;;;;;;;18.40;5.20;;;;;;;16.34;64.19;97861.73;67641;1281;1017310;-60
2023/03/25 08:00:05;;;;;;;;;;;;;;;16.52;64.53;97855.48;67565;1281;1016166;-60
2023/03/25 08:03:07;;;;;;;20.20;5.20;;;;;;;16.77;63.19;97853.67;67632;1281;1019255;-60
2023/03/25 08:06:10;;;;;;;21.20;5.70;;;;;;;16.74;62.86;97851.08;67584;1281;1016522;-60
2023/03/25 08:09:12;;;;;;;17.20;4.60;;;;;;;16.76;62.68;97848.10;67619;1281;1016455;-60
2023/03/25 08:12:15;;;;;;;14.90;4.20;;;;;;;16.79;61.91;97847.77;67631;1281;1016472;-60
2023/03/25 08:15:17;;;;;;;21.00;4.30;;;;;;;16.45;61.33;97853.15;67597;1281;1016289;-60
2023/03/25 08:18:19;;;;;;;17.30;4.60;;;;;;;16.59;60.65;97841.86;67599;1281;1016945;-60
2023/03/25 08:21:24;;;;;;;18.10;4.50;;;;;;;16.59;60.52;97839.90;67564;1281;1016295;-61
2023/03/25 08:24:28;;;;;;;17.60;4.40;;;;;;;16.44;61.24;97842.52;67569;1260;1016179;-61
2023/03/25 08:27:31;;;;;;;18.00;4.40;;;;;;;16.50;61.45;97838.02;67557;1281;1016044;-60
2023/03/25 08:30:37;;;;;;;17.50;4.40;;;;;;;16.62;60.73;97837.05;67567;1281;1016211;-61
2023/03/25 08:33:41;;;;;;;16.40;3.80;;;;;;;16.60;59.08;97832.39;67582;1281;1016449;-61
2023/03/25 08:36:44;;;;;;;15.70;3.90;;;;;;;16.71;59.56;97827.63;67565;1281;1016222;-61
2023/03/25 08:39:49;;;;;;;15.00;3.90;;;;;;;16.94;58.18;97827.60;67617;1281;1016407;-60
2023/03/25 08:42:51;;;;;;;18.40;4.40;;;;;;;17.18;57.60;97827.05;67625;1281;1016496;-60
2023/03/25 08:45:54;;;;;;;16.20;3.80;;;;;;;17.59;58.39;97817.83;67596;1281;1017687;-61
2023/03/25 08:48:56;;;;;;;;;;;;;;;17.93;56.38;97815.33;67539;1281;1016477;-61
2023/03/25 08:52:00;;;;;;;20.90;4.10;;;;;;;17.92;55.62;97813.12;67535;1281;1016789;-61
2023/03/25 08:55:03;;;;;;;15.10;3.80;;;;;;;18.02;55.80;97812.64;67580;1281;1016175;-61
2023/03/25 08:58:06;;;;;;;17.00;4.00;;;;;;;18.02;56.05;97816.10;67643;1281;1016503;-61
2023/03/25 09:01:10;;;;;;;19.50;4.60;;;;;;;17.95;53.91;97820.25;67582;1281;1016289;-61
2023/03/25 09:04:13;;;;;;;15.30;3.90;;;;;;;17.83;52.98;97823.24;67641;1281;1016410;-61
2023/03/25 09:07:18;;;;;;;15.60;3.70;;;;;;;17.80;55.35;97813.46;67617;1281;1018196;-61
2023/03/25 09:10:21;;;;;;;14.90;3.60;;;;;;;18.15;54.14;97811.33;67642;1281;1015991;-61
2023/03/25 09:13:23;;;;;;;15.80;3.60;;;;;;;18.44;54.05;97810.30;67637;1281;1017018;-61
2023/03/25 09:16:26;;;;;;;16.60;3.80;;;;;;;18.75;52.69;97806.92;67640;1281;1016475;-61
2023/03/25 09:19:28;;;;;;;;;;;;;;;18.73;52.34;97801.16;67578;1281;1016561;-61
2023/03/25 09:22:30;;;;;;;16.30;3.40;;;;;;;18.92;52.62;97796.92;67615;1281;1016434;-61
2023/03/25 09:25:33;;;;;;;14.00;3.40;;;;;;;19.39;51.57;97798.90;67565;1281;1016533;-61
2023/03/25 09:28:35;;;;;;;;;;;;;;;19.59;49.28;97797.27;67644;1281;1016287;-61
2023/03/25 09:31:37;;;;;;;15.00;3.30;;;;;;;19.88;48.98;97796.25;67630;1281;1016455;-61
2023/03/25 09:34:40;;;;;;;13.60;3.20;;;;;;;20.03;50.43;97784.94;67589;1281;1016458;-61
2023/03/25 09:37:42;;;;;;;;;;;;;;;19.81;48.52;97783.32;67561;1281;1015988;-61
2023/03/25 09:40:45;;;;;;;15.70;4.00;;;;;;;19.71;49.07;97781.05;67574;1281;1016495;-61
2023/03/25 09:43:47;;;;;;;;;;;;;;;19.86;48.16;97786.73;67595;1281;1016592;-61
2023/03/25 09:46:50;;;;;;;16.00;3.30;;;;;;;19.78;46.47;97793.50;67608;1281;1016458;-61
2023/03/25 09:49:52;;;;;;;;;;;;;;;19.45;47.43;97803.89;67603;1281;1016468;-61
2023/03/25 09:52:55;;;;;;;11.70;3.10;;;;;;;19.17;47.10;97804.73;67580;1281;1016465;-61
2023/03/25 09:55:57;;;;;;;;;;;;;;;19.18;47.25;97802.25;67586;1281;1016516;-61
2023/03/25 09:59:00;;;;;;;13.60;2.70;;;;;;;19.17;45.65;97804.07;67656;1281;1016474;-61
2023/03/25 10:02:02;;;;;;;13.20;3.20;;;;;;;19.29;46.17;97803.05;67648;1281;1016503;-61
2023/03/25 10:05:05;;;;;;;14.80;3.50;;;;;;;19.09;46.70;97804.97;67582;1281;1016453;-61
2023/03/25 10:08:07;;;;;;;13.70;3.30;;;;;;;18.73;47.26;97802.35;67568;1281;1017672;-61
2023/03/25 10:11:10;;;;;;;;;;;;;;;18.48;47.75;97792.09;67623;1281;1016222;-61
2023/03/25 10:14:12;;;;;;;14.20;3.60;;;;;;;18.42;48.18;97784.13;67671;1281;1015809;-61
2023/03/25 10:17:14;;;;;;;;;;;;;;;18.30;48.20;97778.73;67597;1281;1016443;-61
2023/03/25 10:20:17;;;;;;;16.00;3.40;;;;;;;18.21;48.91;97779.62;67591;1281;1016282;-61
2023/03/25 10:23:20;;;;;;;15.90;3.80;;;;;;;18.13;48.87;97771.37;67657;1281;1016280;-61
2023/03/25 10:26:22;;;;;;;14.50;3.60;;;;;;;18.53;49.30;97764.55;67602;1281;1016133;-61
2023/03/25 10:29:25;;;;;;;;;;;;;;;19.29;49.34;97752.38;67582;1281;1016288;-61
2023/03/25 10:32:27;;;;;;;;;;;;;;;20.01;47.25;97756.01;67602;1281;1016559;-61
2023/03/25 10:35:29;;;;;;;12.20;3.50;;;;;;;20.34;46.07;97750.33;67619;1281;1016257;-61
2023/03/25 10:38:32;;;;;;;;;;;;;;;20.43;45.86;97748.32;67578;1281;1016320;-61
2023/03/25 10:41:36;;;;;;;13.20;3.10;;;;;;;20.38;47.05;97741.56;67574;1281;1016007;-61
2023/03/25 10:44:38;;;;;;;12.20;3.10;;;;;;;20.32;45.28;97737.67;67632;1281;1016489;-61
2023/03/25 10:47:40;;;;;;;11.10;3.10;;;;;;;20.60;45.61;97725.09;67603;1281;1016494;-61
2023/03/25 10:50:43;;;;;;;;;;;;;;;20.89;43.97;97726.34;67617;1281;1017512;-61
2023/03/25 10:53:45;;;;;;;10.90;2.80;;;;;;;20.92;43.55;97720.47;67598;1281;1018528;-61
2023/03/25 10:56:48;;;;;;;9.50;2.60;;;;;;;21.07;43.71;97710.39;67654;1281;1016548;-61
2023/03/25 10:59:50;;;;;;;10.30;2.70;;;;;;;21.08;41.72;97709.45;67639;1281;1015991;-61
2023/03/25 11:02:53;;;;;;;9.00;2.40;;;;;;;21.28;41.01;97697.17;67576;1281;1017125;-61
2023/03/25 11:05:56;;;;;;;12.50;3.30;;;;;;;21.55;42.44;97685.13;67597;1281;1016260;-61
2023/03/25 11:08:58;;;;;;;14.30;2.40;;;;;;;21.49;40.80;97684.16;67594;1281;1018902;-61
2023/03/25 11:12:01;;;;;;;9.60;2.30;;;;;;;21.31;41.55;97694.41;67645;1281;1016564;-61
2023/03/25 11:15:04;;;;;;;10.80;2.30;;;;;;;21.17;40.72;97689.70;67614;1281;1016416;-61
2023/03/25 11:18:06;;;;;;;9.60;2.10;;;;;;;21.50;40.42;97684.31;67603;1281;1016435;-61
2023/03/25 11:21:09;;;;;;;11.70;2.40;;;;;;;21.29;39.13;97681.59;67624;1281;1016225;-62
2023/03/25 11:24:11;;;;;;;8.50;2.30;;;;;;;21.74;40.82;97662.96;67659;1281;1016429;-61
2023/03/25 11:27:14;;;;;;;12.30;2.70;;;;;;;21.71;38.65;97661.30;67641;1281;1016497;-61
2023/03/25 11:30:16;;;;;;;13.90;3.30;;;;;;;21.38;41.46;97653.98;67600;1281;1016402;-61
2023/03/25 11:33:18;;;;;;;10.40;2.80;;;;;;;21.89;40.56;97644.65;67604;1281;1016488;-61
2023/03/25 11:36:21;;;;;;;10.80;2.40;;;;;;;22.18;39.80;97644.86;67633;1281;1016390;-61
2023/03/25 11:39:24;;;;;;;10.50;2.40;;;;;;;21.60;37.48;97652.05;67579;1281;1016446;-61
2023/03/25 11:42:27;;;;;;;12.30;2.80;;;;;;;20.78;39.30;97665.97;67594;1281;1016411;-61
2023/03/25 11:45:29;;;;;;;18.30;2.80;;;;;;;20.28;41.06;97666.98;67617;1281;1016531;-61
2023/03/25 11:48:32;;;;;;;12.90;2.60;;;;;;;19.87;41.15;97662.64;67593;1281;1016491;-61
2023/03/25 11:51:34;;;;;;;;;;;;;;;19.46;40.95;97666.42;67548;1281;1016161;-61
2023/03/25 11:54:37;;;;;;;;;;;;;;;19.14;42.40;97668.85;67653;1281;1016395;-61
2023/03/25 11:57:41;;;;;;;13.00;2.40;;;;;;;18.60;43.39;97685.53;67632;1281;1016496;-61
2023/03/25 12:00:56;;;;;;;11.80;2.50;;;;;;;18.16;45.24;97698.36;67630;1281;1016800;-61
2023/03/25 12:04:07;;;;;;;12.90;2.70;;;;;;;17.85;46.54;97698.41;67631;1281;1016542;-61
2023/03/25 12:07:09;;;;;;;10.30;2.50;;;;;;;17.93;46.92;97682.34;67664;1281;1018925;-61
2023/03/25 12:10:12;;;;;;;16.30;2.90;;;;;;;18.44;46.81;97684.27;67610;1281;1016450;-61
2023/03/25 12:13:14;;;;;;;14.80;3.00;;;;;;;18.86;45.50;97673.48;67603;1281;1016478;-61
2023/03/25 12:16:17;;;;;;;10.20;2.40;;;;;;;19.00;45.09;97669.03;67642;1281;1015896;-61
2023/03/25 12:19:19;;;;;;;7.20;1.70;;;;;;;19.15;43.50;97670.23;67644;1281;1016444;-61
2023/03/25 12:22:21;;;;;;;;;;;;;;;19.46;40.45;97660.23;67670;1281;1016380;-61
2023/03/25 12:25:25;;;;;;;10.10;2.00;;;;;;;19.79;41.40;97653.61;67615;1281;1017211;-61
2023/03/25 12:28:27;;;;;;;8.50;1.90;;;;;;;20.33;41.21;97643.52;67631;1281;1016511;-61
2023/03/25 12:31:30;;;;;;;;;;;;;;;20.59;40.04;97639.99;67633;1281;1016526;-61
2023/03/25 12:34:32;;;;;;;12.20;1.90;;;;;;;20.71;39.79;97646.40;67625;1281;1016533;-61
2023/03/25 12:37:35;;;;;;;;;;;;;;;20.27;39.42;97654.66;67617;1281;1016764;-61
2023/03/25 12:40:37;;;;;;;6.70;1.80;;;;;;;19.40;41.66;97653.14;67663;1281;1019450;-60
2023/03/25 12:43:39;;;;;;;;;;;;;;;19.14;43.70;97653.83;67671;1281;1016522;-61
2023/03/25 12:46:42;;;;;;;9.80;2.50;;;;;;;19.35;43.92;97641.52;67598;1281;1017022;-62
2023/03/25 12:49:44;;;;;;;9.90;2.50;;;;;;;19.50;43.08;97644.88;67596;1281;1016476;-61
2023/03/25 12:52:47;;;;;;;;;;;;;;;19.79;42.00;97640.78;67612;1281;1016074;-61
2023/03/25 12:55:50;;;;;;;7.10;2.10;;;;;;;19.82;40.82;97639.03;67572;1281;1016608;-61
2023/03/25 12:58:54;;;;;;;9.10;2.20;;;;;;;19.59;41.14;97637.02;67568;1281;1017157;-61
2023/03/25 13:01:57;;;;;;;7.00;1.90;;;;;;;19.05;42.43;97628.65;67633;1281;1018886;-61
2023/03/25 13:04:59;;;;;;;5.20;1.60;;;;;;;19.20;41.99;97627.14;67588;1281;1016505;-61
2023/03/25 13:08:02;;;;;;;;;;;;;;;18.99;40.34;97626.15;67673;1281;1016418;-61
2023/03/25 13:11:07;;;;;;;9.20;2.40;;;;;;;18.42;41.68;97629.65;67623;1281;1016157;-61
2023/03/25 13:14:09;;;;;;;5.30;1.90;;;;;;;18.26;42.29;97625.85;67606;1281;1016142;-61
2023/03/25 13:17:12;;;;;;;;;;;;;;;18.20;42.87;97631.48;67712;1281;1017054;-61
2023/03/25 13:20:16;;;;;;;6.40;1.70;;;;;;;18.29;42.79;97624.23;65089;1281;6387266;-62
2023/03/25 13:23:20;;;;;;;10.60;2.50;;;;;;;18.14;44.08;97622.41;67654;1281;1016040;-61
2023/03/25 13:26:23;;;;;;;6.70;1.70;;;;;;;18.19;43.60;97633.34;67595;1281;1016322;-61
2023/03/25 13:29:26;;;;;;;6.30;2.10;;;;;;;18.02;44.05;97635.24;67594;1281;1016268;-61
2023/03/25 13:32:28;;;;;;;7.70;1.80;;;;;;;18.13;44.04;97640.68;67581;1281;1016043;-62
2023/03/25 13:35:31;;;;;;;10.40;1.90;;;;;;;18.72;43.68;97626.45;67599;1281;1016455;-61
2023/03/25 13:38:33;;;;;;;;;;;;;;;19.41;41.89;97617.44;67611;1281;1016436;-62
2023/03/25 13:41:36;;;;;;;7.30;1.60;;;;;;;19.84;39.76;97606.92;67668;1281;1017099;-62
2023/03/25 13:44:38;;;;;;;;;;;;;;;19.87;38.31;97609.02;67652;1281;1016428;-62
2023/03/25 13:47:41;;;;;;;5.70;1.60;;;;;;;19.94;38.45;97599.34;67616;1281;1016396;-61
2023/03/25 13:50:45;;;;;;;5.80;1.80;;;;;;;19.75;38.16;97612.44;67587;1281;1016685;-62
2023/03/25 13:53:47;;;;;;;9.00;2.20;;;;;;;19.41;37.70;97619.73;67601;1281;1016850;-62
2023/03/25 13:56:50;;;;;;;;;;;;;;;19.12;37.92;97623.35;67619;1281;1016463;-62
2023/03/25 13:59:53;;;;;;;8.90;2.00;;;;;;;18.79;38.17;97635.83;67621;1281;1016470;-62
2023/03/25 14:02:55;;;;;;;5.60;1.70;;;;;;;18.67;38.07;97629.21;67637;1281;1016354;-61